Penacook, New Hampshire
Current Conditions -  °F | °C
As of 7:51 PM on Wednesday 26 Nov 2014 (Local Time) from KCON Reporting Station
Light Snow Light Snow  
Wind Chill: 22°   Ceiling: 800
Heat Index: 32°   Visibility: 0.75mi
Dew Point: 31°   Wind: 14mph
Humidity: 96%   Direction: 20°NNE
Pressure: 29.83"   Gusts: NA
Location:  43.3208°N, 71.6638°W
Report Text: KCON 270051Z AUTO 02012KT 3/4SM -SN BR VV008 00/M01 A2983 RMK AO2 PRESFR SLP104 P0010 T00001006 $
Loading
Personal Weather Stations






























Interactive Weather Map New forecast layout! Learn more

10-Day Weather Forecast

Advertisements
Track Severe Weather on mobile